createdAt,value
2017-11-09T00:02:30.633Z,90.20
2017-11-09T00:05:04.473Z,90.40
2017-11-09T00:07:32.496Z,90.70
2017-11-09T00:10:00.557Z,90.80
2017-11-09T00:12:28.571Z,90.90
2017-11-09T00:14:57.368Z,90.60
2017-11-09T00:17:25.410Z,90.60
2017-11-09T00:19:53.449Z,90.70
2017-11-09T00:22:21.483Z,90.60
2017-11-09T00:24:49.501Z,90.40
2017-11-09T00:27:17.555Z,89.60
2017-11-09T00:29:45.577Z,89.60
2017-11-09T00:32:14.388Z,89.60
2017-11-09T00:34:42.410Z,89.50
2017-11-09T00:37:11.220Z,90.00
2017-11-09T00:39:39.239Z,90.00
2017-11-09T00:42:07.304Z,90.50
2017-11-09T00:44:35.330Z,90.60
2017-11-09T00:47:03.359Z,90.70
2017-11-09T00:49:31.408Z,90.20
2017-11-09T00:51:59.435Z,90.20
2017-11-09T00:54:27.498Z,90.20
2017-11-09T00:56:55.553Z,90.10
2017-11-09T00:59:23.596Z,90.30
2017-11-09T01:01:51.617Z,90.50
2017-11-09T01:04:19.684Z,90.60
2017-11-09T01:06:48.468Z,91.10
2017-11-09T01:09:17.258Z,91.20
2017-11-09T01:11:45.297Z,90.90
2017-11-09T01:14:14.093Z,91.00
2017-11-09T01:16:42.134Z,91.00
2017-11-09T01:19:10.158Z,91.10
2017-11-09T01:21:38.263Z,91.00
2017-11-09T01:24:06.275Z,90.90
2017-11-09T01:26:34.317Z,91.00
2017-11-09T01:32:12.603Z,90.90
2017-11-09T01:34:40.636Z,91.00
2017-11-09T01:37:08.673Z,91.10
2017-11-09T01:39:36.723Z,91.10
2017-11-09T01:42:04.791Z,91.10
2017-11-09T01:44:32.808Z,91.10
2017-11-09T01:47:01.616Z,91.30
2017-11-09T01:49:30.453Z,91.30
2017-11-09T01:51:58.523Z,91.30
2017-11-09T01:54:26.554Z,91.20
2017-11-09T01:56:54.617Z,91.20
2017-11-09T01:59:22.649Z,91.30
2017-11-09T02:01:51.584Z,91.20
2017-11-09T02:04:19.613Z,91.10
2017-11-09T02:06:47.638Z,91.30
2017-11-09T02:09:15.683Z,91.30
2017-11-09T02:11:43.703Z,91.00
2017-11-09T02:14:11.799Z,90.80
2017-11-09T02:16:39.828Z,90.90
2017-11-09T02:19:07.875Z,90.90
2017-11-09T02:21:36.024Z,91.40
2017-11-09T02:24:04.825Z,91.20
2017-11-09T02:26:33.628Z,90.80
2017-11-09T02:29:02.420Z,90.70
2017-11-09T02:31:31.224Z,90.40
2017-11-09T02:34:00.046Z,90.60
2017-11-09T02:36:28.169Z,90.60
2017-11-09T02:38:56.196Z,91.00
2017-11-09T02:41:25.039Z,91.10
2017-11-09T02:43:53.177Z,91.10
2017-11-09T02:46:21.211Z,91.00
2017-11-09T02:48:49.248Z,90.90
2017-11-09T02:51:18.041Z,90.60
2017-11-09T02:53:46.096Z,90.90
2017-11-09T02:56:14.148Z,90.40
2017-11-09T02:58:42.184Z,90.30
2017-11-09T03:01:10.249Z,90.30
2017-11-09T03:03:38.283Z,90.30
2017-11-09T03:06:06.312Z,90.40
2017-11-09T03:08:34.351Z,89.30
2017-11-09T03:11:02.372Z,90.00
2017-11-09T03:13:30.432Z,90.30
2017-11-09T03:15:58.460Z,90.60
2017-11-09T03:18:26.490Z,90.70
2017-11-09T03:20:54.567Z,90.30
2017-11-09T03:23:22.638Z,90.60
2017-11-09T03:25:51.453Z,90.30
2017-11-09T03:28:19.507Z,90.20
2017-11-09T03:30:47.538Z,90.10
2017-11-09T03:33:15.576Z,89.50
2017-11-09T03:35:43.626Z,89.50
2017-11-09T03:38:11.649Z,89.50
2017-11-09T03:40:39.684Z,88.70
2017-11-09T03:43:07.716Z,88.70
2017-11-09T03:45:35.758Z,88.40
2017-11-09T03:48:03.772Z,87.50
2017-11-09T03:50:31.825Z,87.80
2017-11-09T03:52:59.847Z,89.00
2017-11-09T03:55:27.888Z,89.40
2017-11-09T03:57:55.913Z,88.80
2017-11-09T04:00:24.863Z,90.00
2017-11-09T04:02:52.901Z,90.00
2017-11-09T04:05:20.940Z,90.20
2017-11-09T04:07:48.971Z,90.80
2017-11-09T04:10:17.008Z,90.60
2017-11-09T04:12:45.027Z,90.80
2017-11-09T04:15:13.076Z,90.90
2017-11-09T04:17:41.104Z,91.00
2017-11-09T04:20:09.165Z,91.00
2017-11-09T04:22:37.193Z,91.30
2017-11-09T04:25:05.219Z,91.10
2017-11-09T04:27:33.273Z,91.20
2017-11-09T04:30:01.302Z,91.20
2017-11-09T04:32:29.352Z,91.30
2017-11-09T04:34:57.969Z,91.10
2017-11-09T04:37:26.021Z,90.90
2017-11-09T04:39:54.039Z,90.90
2017-11-09T04:42:22.112Z,90.90
2017-11-09T04:44:50.152Z,91.00
2017-11-09T04:47:18.936Z,90.70
2017-11-09T04:49:46.988Z,91.00
2017-11-09T04:52:15.229Z,90.40
2017-11-09T04:54:44.023Z,90.40
2017-11-09T04:57:12.080Z,90.40
2017-11-09T04:59:40.128Z,90.30
2017-11-09T05:02:08.164Z,90.40
2017-11-09T05:04:36.200Z,90.30
2017-11-09T05:07:04.222Z,90.00
2017-11-09T05:09:32.257Z,90.20
2017-11-09T05:12:00.280Z,89.50
2017-11-09T05:14:28.515Z,89.90
2017-11-09T05:16:56.535Z,90.10
2017-11-09T05:19:24.561Z,90.30
2017-11-09T05:21:52.624Z,90.10
2017-11-09T05:24:20.648Z,90.20
2017-11-09T05:26:48.689Z,90.20
2017-11-09T05:29:16.712Z,90.40
2017-11-09T05:31:44.754Z,90.30
2017-11-09T05:34:12.775Z,90.40
2017-11-09T05:36:40.856Z,90.30
2017-11-09T05:39:08.885Z,90.20
2017-11-09T05:41:36.909Z,90.20
2017-11-09T05:44:05.713Z,90.50
2017-11-09T05:46:34.512Z,90.70
2017-11-09T05:49:03.320Z,90.60
2017-11-09T05:51:32.109Z,90.80
2017-11-09T05:54:00.916Z,91.00
2017-11-09T05:56:29.704Z,90.90
2017-11-09T05:58:57.745Z,90.90
2017-11-09T06:01:25.764Z,90.80
2017-11-09T06:03:53.820Z,90.80
2017-11-09T06:06:21.843Z,90.50
2017-11-09T06:08:50.666Z,90.20
2017-11-09T06:11:18.696Z,90.10
2017-11-09T06:13:46.727Z,89.50
2017-11-09T06:16:16.265Z,89.60
2017-11-09T06:18:44.292Z,89.50
2017-11-09T06:21:12.336Z,89.50
2017-11-09T06:23:40.360Z,89.50
2017-11-09T06:26:09.918Z,89.30
2017-11-09T06:28:38.703Z,89.40
2017-11-09T06:31:07.508Z,89.40
2017-11-09T06:33:36.301Z,89.50
2017-11-09T06:36:04.363Z,89.40
2017-11-09T06:38:32.375Z,90.00
2017-11-09T06:41:01.179Z,88.10
2017-11-09T06:43:29.982Z,88.60
2017-11-09T06:45:58.780Z,88.70
2017-11-09T06:48:27.565Z,89.40
2017-11-09T06:50:55.612Z,89.40
2017-11-09T06:53:23.640Z,89.40
2017-11-09T06:55:51.720Z,89.40
2017-11-09T06:58:19.777Z,89.30
2017-11-09T07:00:47.799Z,89.80
2017-11-09T07:03:16.622Z,90.00
2017-11-09T07:05:44.649Z,90.00
2017-11-09T07:08:12.701Z,90.20
2017-11-09T07:10:40.721Z,90.30
2017-11-09T07:13:10.290Z,90.40
2017-11-09T07:15:38.303Z,90.40
2017-11-09T07:18:06.351Z,90.20
2017-11-09T07:20:34.380Z,90.10
2017-11-09T07:23:02.442Z,90.10
2017-11-09T07:25:30.484Z,89.50
2017-11-09T07:27:59.301Z,88.20
2017-11-09T07:30:28.088Z,88.70
2017-11-09T07:32:56.900Z,87.00
2017-11-09T07:35:24.933Z,86.90
2017-11-09T07:37:52.976Z,85.60
2017-11-09T07:40:20.997Z,87.10
2017-11-09T07:42:49.032Z,86.80
2017-11-09T07:45:17.824Z,85.30
2017-11-09T07:47:46.640Z,86.70
2017-11-09T07:50:14.665Z,86.60
2017-11-09T07:52:42.707Z,85.80
2017-11-09T07:55:10.744Z,86.20
2017-11-09T07:57:38.793Z,87.60
2017-11-09T08:00:06.831Z,87.40
2017-11-09T08:02:34.868Z,87.20
2017-11-09T08:05:02.888Z,87.10
2017-11-09T08:07:30.948Z,87.80
2017-11-09T08:09:59.168Z,87.70
2017-11-09T08:12:27.200Z,86.50
2017-11-09T08:14:55.252Z,84.80
2017-11-09T08:17:23.283Z,85.10
2017-11-09T08:19:51.321Z,84.40
2017-11-09T08:22:20.107Z,85.30
2017-11-09T08:24:52.888Z,85.10
2017-11-09T08:27:22.921Z,84.40
2017-11-09T08:29:56.756Z,85.00
2017-11-09T08:32:26.324Z,84.90
2017-11-09T08:34:54.398Z,85.10
2017-11-09T08:37:22.447Z,87.50
2017-11-09T08:39:51.253Z,86.50
2017-11-09T08:42:20.063Z,85.00
2017-11-09T08:44:48.851Z,84.00
2017-11-09T08:47:17.650Z,84.40
2017-11-09T08:49:46.448Z,84.80
2017-11-09T08:52:14.516Z,84.70
2017-11-09T08:54:42.540Z,84.00
2017-11-09T08:57:10.572Z,83.80
2017-11-09T08:59:38.632Z,84.50
2017-11-09T09:02:07.612Z,84.30
2017-11-09T09:04:35.656Z,83.70
2017-11-09T09:07:03.671Z,82.90
2017-11-09T09:09:32.484Z,83.30
2017-11-09T09:12:00.521Z,83.30
2017-11-09T09:14:28.561Z,84.40
2017-11-09T09:16:56.600Z,81.90
2017-11-09T09:19:24.645Z,81.40
2017-11-09T09:21:53.620Z,81.90
2017-11-09T09:24:22.180Z,81.40
2017-11-09T09:26:50.204Z,81.40
2017-11-09T09:29:19.811Z,81.40
2017-11-09T09:31:48.376Z,81.70
2017-11-09T09:37:24.364Z,81.40
2017-11-09T09:39:54.939Z,81.30
2017-11-09T09:42:23.749Z,81.60
2017-11-09T09:44:52.569Z,81.20
2017-11-09T09:47:20.587Z,81.00
2017-11-09T09:49:48.633Z,81.30
2017-11-09T09:52:16.668Z,81.90
2017-11-09T09:54:44.709Z,82.80
2017-11-09T09:57:12.732Z,83.10
2017-11-09T09:59:40.884Z,82.60
2017-11-09T10:02:08.900Z,83.20
2017-11-09T10:04:36.932Z,83.10
2017-11-09T10:07:04.971Z,83.10
2017-11-09T10:09:33.001Z,84.20
2017-11-09T10:12:01.052Z,83.70
2017-11-09T10:14:29.088Z,82.90
2017-11-09T10:16:57.162Z,82.40
2017-11-09T10:19:25.201Z,81.30
2017-11-09T10:21:53.304Z,79.60
2017-11-09T10:24:21.340Z,81.30
2017-11-09T10:26:49.380Z,81.70
2017-11-09T10:29:25.904Z,81.30
2017-11-09T10:31:54.076Z,81.20
2017-11-09T10:34:25.150Z,81.30
2017-11-09T10:37:04.848Z,80.90
2017-11-09T10:39:33.636Z,79.10
2017-11-09T10:42:01.660Z,79.00
2017-11-09T10:44:29.713Z,79.20
2017-11-09T10:46:58.504Z,78.50
2017-11-09T10:49:26.549Z,78.40
2017-11-09T10:51:54.624Z,76.30
2017-11-09T10:54:22.675Z,76.40
2017-11-09T10:56:51.463Z,75.80
2017-11-09T10:59:20.281Z,78.00
2017-11-09T11:01:48.371Z,77.90
2017-11-09T11:04:17.173Z,75.50
2017-11-09T11:06:45.225Z,75.40
2017-11-09T11:09:13.298Z,73.60
2017-11-09T11:11:41.330Z,74.90
2017-11-09T11:14:09.368Z,73.70
2017-11-09T11:16:37.404Z,74.80
2017-11-09T11:19:05.427Z,73.40
2017-11-09T11:21:33.483Z,74.60
2017-11-09T11:24:01.517Z,74.50
2017-11-09T11:26:29.551Z,76.10
2017-11-09T11:28:57.576Z,75.00
2017-11-09T11:31:25.796Z,75.40
2017-11-09T11:33:53.836Z,74.40
2017-11-09T11:36:21.869Z,74.80
2017-11-09T11:38:49.920Z,72.70
2017-11-09T11:41:17.940Z,72.60
2017-11-09T11:43:45.989Z,73.20
2017-11-09T11:46:14.033Z,75.10
2017-11-09T11:48:47.835Z,74.60
2017-11-09T11:51:15.924Z,73.60
2017-11-09T11:53:43.960Z,74.30
2017-11-09T11:56:12.000Z,72.70
2017-11-09T11:58:40.040Z,72.70
2017-11-09T12:01:08.861Z,73.00
2017-11-09T12:03:36.939Z,72.90
2017-11-09T12:06:04.981Z,73.70
2017-11-09T12:08:33.005Z,75.60
2017-11-09T12:11:01.055Z,72.60
2017-11-09T12:13:29.068Z,71.20
2017-11-09T12:15:57.126Z,72.90
2017-11-09T12:18:26.460Z,71.20
2017-11-09T12:20:55.257Z,73.00
2017-11-09T12:23:23.298Z,72.90
2017-11-09T12:25:51.337Z,72.80
2017-11-09T12:28:19.392Z,72.80
2017-11-09T12:30:47.449Z,71.20
2017-11-09T12:33:15.480Z,71.10
2017-11-09T12:35:44.280Z,72.70
2017-11-09T12:38:13.076Z,74.20
2017-11-09T12:40:41.916Z,72.80
2017-11-09T12:43:09.965Z,72.80
2017-11-09T12:45:38.764Z,70.70
2017-11-09T12:48:06.796Z,70.70
2017-11-09T12:50:34.824Z,70.60
2017-11-09T12:53:03.637Z,72.80
2017-11-09T12:55:32.456Z,72.70
2017-11-09T12:58:01.272Z,72.70
2017-11-09T13:00:29.289Z,72.70
2017-11-09T13:02:57.369Z,71.10
2017-11-09T13:05:25.393Z,69.50
2017-11-09T13:07:54.235Z,70.70
2017-11-09T13:10:22.252Z,70.70
2017-11-09T13:12:50.279Z,71.50
2017-11-09T13:15:18.320Z,72.50
2017-11-09T13:17:47.857Z,74.00
2017-11-09T13:20:16.667Z,74.60
2017-11-09T13:22:45.479Z,72.50
2017-11-09T13:25:14.293Z,73.40
2017-11-09T13:27:42.316Z,73.40
2017-11-09T13:30:10.362Z,72.70
2017-11-09T13:32:45.045Z,72.70
2017-11-09T13:35:13.101Z,74.00
2017-11-09T13:37:41.124Z,72.90
2017-11-09T13:40:09.157Z,71.90
2017-11-09T13:42:37.196Z,73.20
2017-11-09T13:45:05.233Z,72.60
2017-11-09T13:47:33.285Z,72.10
2017-11-09T13:50:01.324Z,72.70
2017-11-09T13:52:29.372Z,72.70
2017-11-09T13:54:57.400Z,72.70
2017-11-09T13:57:25.577Z,72.30
2017-11-09T13:59:53.626Z,72.60
2017-11-09T14:02:21.644Z,72.70
2017-11-09T14:04:49.689Z,72.80
2017-11-09T14:07:18.236Z,74.00
2017-11-09T14:09:46.289Z,74.40
2017-11-09T14:12:14.304Z,74.00
2017-11-09T14:14:42.353Z,72.40
2017-11-09T14:17:10.371Z,71.80
2017-11-09T14:19:38.420Z,72.10
2017-11-09T14:22:06.448Z,71.50
2017-11-09T14:24:34.513Z,71.00
2017-11-09T14:27:02.531Z,71.90
2017-11-09T14:29:31.325Z,72.70
2017-11-09T14:32:00.136Z,73.70
2017-11-09T14:34:28.196Z,73.60
2017-11-09T14:36:56.257Z,72.60
2017-11-09T14:39:24.284Z,72.60
2017-11-09T14:41:52.341Z,72.50
2017-11-09T14:44:20.368Z,72.50
2017-11-09T14:46:48.452Z,72.50
2017-11-09T14:49:16.508Z,72.50
2017-11-09T14:51:44.544Z,72.50
2017-11-09T14:54:12.584Z,73.50
2017-11-09T14:56:41.377Z,73.00
2017-11-09T14:59:10.185Z,73.70
2017-11-09T15:01:44.653Z,72.50
2017-11-09T15:04:12.933Z,72.50
2017-11-09T15:06:40.967Z,72.50
2017-11-09T15:09:09.016Z,72.40
2017-11-09T15:11:37.044Z,73.10
2017-11-09T15:14:05.100Z,73.10
2017-11-09T15:16:33.118Z,73.60
2017-11-09T15:19:01.189Z,74.30
2017-11-09T15:21:29.209Z,73.80
2017-11-09T15:23:57.260Z,74.10
2017-11-09T15:26:25.292Z,74.00
2017-11-09T15:28:53.371Z,74.20
2017-11-09T15:31:21.393Z,74.60
2017-11-09T15:33:49.445Z,75.00
2017-11-09T15:36:21.388Z,75.50
2017-11-09T15:38:50.200Z,76.90
2017-11-09T15:41:18.230Z,76.90
2017-11-09T15:43:46.268Z,77.00
2017-11-09T15:46:14.297Z,77.90
2017-11-09T15:48:42.348Z,78.40
2017-11-09T15:51:10.376Z,78.90
2017-11-09T15:53:38.436Z,79.60
2017-11-09T15:56:06.462Z,78.50
2017-11-09T15:58:34.479Z,77.60
2017-11-09T16:01:02.521Z,77.40
2017-11-09T16:03:30.547Z,78.00
2017-11-09T16:05:58.587Z,76.60
2017-11-09T16:08:26.624Z,77.00
2017-11-09T16:10:54.659Z,77.80
2017-11-09T16:13:23.460Z,77.30
2017-11-09T16:15:51.520Z,77.20
2017-11-09T16:18:19.531Z,77.60
2017-11-09T16:20:48.331Z,78.20
2017-11-09T16:23:17.120Z,78.00
2017-11-09T16:25:45.160Z,78.00
2017-11-09T16:28:13.184Z,77.90
2017-11-09T16:30:41.412Z,79.70
2017-11-09T16:33:09.437Z,80.40
2017-11-09T16:35:37.465Z,78.50
2017-11-09T16:38:06.264Z,80.80
2017-11-09T16:40:35.096Z,79.60
2017-11-09T16:43:03.122Z,79.60
2017-11-09T16:45:31.140Z,80.10
2017-11-09T16:47:59.184Z,80.00
2017-11-09T16:50:27.199Z,79.80
2017-11-09T16:52:56.969Z,80.00
2017-11-09T16:55:25.016Z,80.00
2017-11-09T16:57:53.055Z,81.10
2017-11-09T17:00:21.081Z,81.00
2017-11-09T17:02:49.867Z,81.10
2017-11-09T17:05:17.908Z,81.00
2017-11-09T17:07:45.942Z,81.10
2017-11-09T17:10:14.748Z,83.90
2017-11-09T17:12:43.565Z,82.20
2017-11-09T17:15:11.580Z,82.20
2017-11-09T17:17:39.652Z,82.70
2017-11-09T17:20:07.689Z,84.80
2017-11-09T17:22:35.764Z,84.40
2017-11-09T17:25:03.799Z,84.20
2017-11-09T17:27:31.808Z,84.50
2017-11-09T17:29:59.839Z,84.10
2017-11-09T17:32:29.692Z,83.90
2017-11-09T17:34:57.736Z,81.40
2017-11-09T17:37:30.348Z,81.90
2017-11-09T17:39:58.384Z,81.70
2017-11-09T17:42:27.247Z,82.90
2017-11-09T17:44:55.317Z,83.30
2017-11-09T17:47:23.383Z,84.50
2017-11-09T17:49:52.183Z,85.00
2017-11-09T17:52:20.977Z,81.70
2017-11-09T17:54:50.020Z,81.00
2017-11-09T17:57:18.056Z,81.50
2017-11-09T17:59:51.937Z,82.80
2017-11-09T18:02:19.947Z,83.00
2017-11-09T18:04:47.972Z,83.60
2017-11-09T18:07:16.787Z,82.10
2017-11-09T18:09:44.808Z,82.10
2017-11-09T18:12:12.860Z,81.70
2017-11-09T18:14:40.880Z,80.90
2017-11-09T18:17:08.920Z,81.90
2017-11-09T18:19:36.935Z,82.40
2017-11-09T18:22:05.800Z,86.40
2017-11-09T18:24:33.834Z,83.80
2017-11-09T18:27:01.891Z,81.60
2017-11-09T18:29:29.919Z,81.80
2017-11-09T18:32:00.472Z,81.00
2017-11-09T18:34:29.276Z,81.80
2017-11-09T18:36:58.082Z,80.90
2017-11-09T18:39:26.919Z,80.90
2017-11-09T18:41:54.944Z,80.90
2017-11-09T18:44:23.034Z,80.90
2017-11-09T18:46:51.035Z,82.20
2017-11-09T18:49:19.852Z,83.30
2017-11-09T18:51:47.868Z,83.30
2017-11-09T18:54:15.908Z,81.80
2017-11-09T18:56:44.691Z,81.60
2017-11-09T18:59:17.524Z,81.70
2017-11-09T19:01:45.545Z,81.60
2017-11-09T19:04:14.714Z,81.60
2017-11-09T19:06:42.865Z,83.60
2017-11-09T19:09:11.674Z,82.30
2017-11-09T19:11:40.472Z,82.50
2017-11-09T19:14:08.487Z,81.70
2017-11-09T19:16:36.528Z,82.60
2017-11-09T19:19:04.551Z,82.70
2017-11-09T19:21:32.606Z,82.70
2017-11-09T19:24:00.628Z,83.40
2017-11-09T19:26:28.741Z,82.70
2017-11-09T19:28:56.772Z,83.10
2017-11-09T19:31:25.703Z,84.30
2017-11-09T19:33:53.785Z,84.30
2017-11-09T19:36:21.831Z,84.20
2017-11-09T19:38:50.611Z,83.20
2017-11-09T19:41:18.668Z,83.20
2017-11-09T19:43:46.693Z,83.10
2017-11-09T19:46:14.744Z,83.70
2017-11-09T19:48:42.769Z,83.30
2017-11-09T19:51:11.587Z,83.30
2017-11-09T19:53:39.622Z,83.20
2017-11-09T19:56:07.662Z,83.80
2017-11-09T19:58:35.685Z,84.20
2017-11-09T20:01:03.737Z,83.40
2017-11-09T20:03:31.764Z,84.10
2017-11-09T20:06:00.000Z,84.40
2017-11-09T20:08:28.036Z,84.50
2017-11-09T20:10:57.575Z,83.60
2017-11-09T20:13:26.380Z,84.10
2017-11-09T20:15:55.184Z,84.20
2017-11-09T20:18:24.000Z,84.00
2017-11-09T20:20:52.020Z,84.00
2017-11-09T20:23:20.085Z,83.10
2017-11-09T20:25:48.122Z,84.00
2017-11-09T20:28:16.159Z,84.40
2017-11-09T20:30:44.184Z,83.80
2017-11-09T20:33:18.950Z,83.60
2017-11-09T20:35:47.737Z,84.10
2017-11-09T20:38:16.556Z,84.20
2017-11-09T20:40:44.596Z,83.90
2017-11-09T20:43:12.664Z,84.60
2017-11-09T20:45:40.704Z,85.30
2017-11-09T20:48:09.486Z,84.20
2017-11-09T20:50:37.529Z,84.20
2017-11-09T20:53:05.573Z,84.10
2017-11-09T20:55:34.422Z,84.20
2017-11-09T20:58:06.335Z,84.20
2017-11-09T21:00:36.083Z,84.00
2017-11-09T21:03:11.039Z,83.90
2017-11-09T21:05:52.639Z,84.80
2017-11-09T21:08:21.351Z,84.00
2017-11-09T21:11:10.110Z,84.10
2017-11-09T21:13:38.158Z,83.10
2017-11-09T21:16:11.016Z,83.40
2017-11-09T21:18:42.628Z,83.40
2017-11-09T21:21:14.234Z,83.30
2017-11-09T21:23:42.351Z,83.20
2017-11-09T21:26:11.169Z,83.70
2017-11-09T21:28:39.221Z,82.90
2017-11-09T21:31:07.251Z,82.30
2017-11-09T21:33:35.288Z,82.40
2017-11-09T21:36:03.319Z,83.30
2017-11-09T21:38:31.361Z,83.70
2017-11-09T21:40:59.389Z,83.50
2017-11-09T21:43:28.330Z,83.20
2017-11-09T21:45:56.369Z,83.20
2017-11-09T21:48:24.384Z,83.00
2017-11-09T21:50:52.420Z,83.60
2017-11-09T21:53:20.443Z,82.00
2017-11-09T21:55:48.496Z,82.90
2017-11-09T21:58:16.547Z,82.90
2017-11-09T22:00:44.580Z,83.50
2017-11-09T22:03:13.368Z,83.20
2017-11-09T22:05:41.434Z,82.50
2017-11-09T22:08:10.368Z,81.70
2017-11-09T22:10:38.522Z,81.70
2017-11-09T22:13:06.673Z,82.70
2017-11-09T22:15:34.724Z,82.80
2017-11-09T22:18:03.519Z,82.20
2017-11-09T22:20:32.376Z,82.20
2017-11-09T22:23:00.416Z,82.00
2017-11-09T22:25:29.195Z,83.50
2017-11-09T22:27:58.774Z,83.10
2017-11-09T22:30:26.788Z,83.00
2017-11-09T22:32:54.824Z,82.20
2017-11-09T22:35:22.857Z,81.90
2017-11-09T22:37:50.927Z,82.00
2017-11-09T22:40:18.955Z,82.50
2017-11-09T22:42:47.739Z,81.90
2017-11-09T22:45:15.779Z,81.90
2017-11-09T22:47:43.804Z,82.00
2017-11-09T22:50:11.830Z,83.70
2017-11-09T22:52:39.856Z,84.00
2017-11-09T22:55:07.887Z,83.90
2017-11-09T22:57:35.924Z,84.30
2017-11-09T23:00:07.234Z,84.10
2017-11-09T23:05:14.815Z,83.70
2017-11-09T23:07:46.061Z,83.00
2017-11-09T23:10:15.241Z,82.50
2017-11-09T23:12:50.020Z,82.40
2017-11-09T23:15:26.692Z,82.90
2017-11-09T23:20:31.917Z,82.00
2017-11-09T23:23:00.080Z,82.00
2017-11-09T23:25:33.153Z,81.80
2017-11-09T23:28:05.257Z,81.30
2017-11-09T23:30:33.314Z,81.60
2017-11-09T23:33:01.328Z,82.20
2017-11-09T23:35:29.352Z,82.20
2017-11-09T23:37:58.149Z,81.60
2017-11-09T23:40:26.927Z,81.40
2017-11-09T23:42:54.964Z,81.40
2017-11-09T23:45:22.980Z,81.00
2017-11-09T23:47:51.012Z,81.30
2017-11-09T23:50:19.029Z,81.60
2017-11-09T23:52:47.059Z,82.30
2017-11-09T23:55:15.085Z,82.60
2017-11-09T23:57:43.251Z,82.20
